Lanark, IL (61046)

4:28 PM CST on January 19, 2017 (GMT -0600)
East Side Lake Carroll | | Change Station

Elev 860 ft 42.18 °N, 89.85 °W | Updated 25 seconds ago

Rain
Rain
38.1 °F
Feels Like 38 °F
N
2.9
Wind Variable Wind from ESE
Gusts 4.9 mph

Today
High -- | Low -- °F
--% Chance of Precip.
Yesterday
High -- | Low -- °F
Precip. -- in
Pressure 29.83 in
Visibility 3.0 miles
Clouds Mostly Cloudy 5000 ft
Overcast 8000 ft
Windchill 38 °F
Dew Point 36 °F
Humidity 91%
Rainfall 0.07 in
Snow Depth Not available.
7:22 AM 4:57 PM
Waning Gibbous, 50% visible
METAR KSFY 192215Z AUTO 10005KT 3SM BR BKN050 OVC080 04/03 A2983 RMK AO2 T00350030
Pressure 29.83 in
Visibility 3.0 miles
Clouds Mostly Cloudy 5000 ft
Overcast 8000 ft
Windchill 38 °F
Dew Point 36 °F
Humidity 91%
Rainfall 0.07 in
Snow Depth Not available.
7:22 AM 4:57 PM
Waning Gibbous, 50% visible
METAR KSFY 192215Z AUTO 10005KT 3SM BR BKN050 OVC080 04/03 A2983 RMK AO2 T00350030

Get Your Daily Forecast Email!

Thanks for signing up!

Be on the lookout for a verification email in your inbox.

You'll start receiving the daily forecast at 8 AM.

×

10-Day Weather Forecast

Almanac

Astronomy

Jan. 19, 2017 Rise Set
Actual Time
Civil Twilight
Nautical Twilight
Astronomical Twilight
Moon
Length of Visible Light
Length of Day
Tomorrow will be .
, % of the Moon is Illuminated

Today's Extremes

State Highs State Lows

Community

WunderPhotos

Upload Photos

1,962,540 photos uploaded!

WunderBlog® & News

Nearby

Air Quality

  Air Quality AQ Index Pollutant
Not available.

Snow Depth

Station Depth Elevation

Earthquake Activity

City Distance Mag. Time & Date
Minimum magnitude displayed is 2.5.

Coastal Water Temperatures

Place Temperature

Stations

Nearby Weather Stations

Station Location Temp. Windchill Dew Point Humidity Wind Precip. Elev Updated Type
                   

Watches & Warnings

There are currently no watches in effect.